Time;durP1;ratioP1;P1;durP2;ratioP2;P2;SDS_P1;SDS_P2;PMS_P1;PMS_P2;Temp;Humidity;BMP_temperature;BMP_pressure;BME280_temperature;BME280_humidity;BME280_pressure;Samples;Min_cycle;Max_cycle;Signal;HPM_P1;HPM_P2
2023/08/15 00:00:11;;;;;;;13.30;7.20;;;;;;;;;;5014393;28;20026;-77
2023/08/15 00:02:36;;;;;;;9.07;5.40;;;;;;;;;;4997320;28;20057;-76
2023/08/15 00:05:02;;;;;;;8.82;6.15;;;;;;;;;;4997376;28;20032;-77
2023/08/15 00:07:28;;;;;;;13.43;6.53;;;;;;;;;;4997425;28;20067;-76
2023/08/15 00:09:53;;;;;;;10.00;6.22;;;;;;;;;;5012996;28;20095;-76
2023/08/15 00:12:18;;;;;;;6.60;5.00;;;;;;;;;;4966735;28;20104;-76
2023/08/15 00:14:43;;;;;;;6.47;5.63;;;;;;;;;;4994966;28;20396;-77
2023/08/15 00:17:09;;;;;;;10.02;7.15;;;;;;;;;;5006870;28;20112;-77
2023/08/15 00:19:34;;;;;;;7.60;5.22;;;;;;;;;;4995681;28;20029;-76
2023/08/15 00:21:59;;;;;;;10.07;6.80;;;;;;;;;;5014489;28;20022;-76
2023/08/15 00:24:24;;;;;;;7.07;5.80;;;;;;;;;;4996943;28;20022;-76
2023/08/15 00:26:50;;;;;;;8.68;5.63;;;;;;;;;;5013668;28;20551;-76
2023/08/15 00:29:15;;;;;;;8.45;5.82;;;;;;;;;;5014343;28;20018;-76
2023/08/15 00:31:40;;;;;;;5.28;4.35;;;;;;;;;;4995923;28;20384;-76
2023/08/15 00:34:06;;;;;;;8.55;5.70;;;;;;;;;;5014368;28;20124;-76
2023/08/15 00:36:31;;;;;;;7.07;4.70;;;;;;;;;;5014173;28;20026;-77
2023/08/15 00:39:01;;;;;;;9.52;6.45;;;;;;;;;;5014090;28;20025;-76
2023/08/15 00:41:26;;;;;;;9.38;5.75;;;;;;;;;;5014362;28;20044;-76
2023/08/15 00:43:53;;;;;;;10.18;7.25;;;;;;;;;;5013783;28;20476;-76
2023/08/15 00:46:18;;;;;;;8.63;6.72;;;;;;;;;;5013986;28;20030;-76
2023/08/15 00:48:44;;;;;;;7.15;5.30;;;;;;;;;;4996262;28;20045;-76
2023/08/15 00:51:09;;;;;;;6.88;5.03;;;;;;;;;;5014017;28;20022;-76
2023/08/15 00:53:35;;;;;;;8.45;5.75;;;;;;;;;;4996333;28;20026;-76
2023/08/15 00:56:00;;;;;;;9.18;5.63;;;;;;;;;;5013260;28;20109;-77
2023/08/15 00:58:26;;;;;;;8.57;6.57;;;;;;;;;;5013876;28;20087;-77
2023/08/15 01:00:51;;;;;;;10.77;6.80;;;;;;;;;;4996075;28;20472;-77
2023/08/15 01:03:17;;;;;;;9.82;7.18;;;;;;;;;;4995808;28;20095;-76
2023/08/15 01:05:44;;;;;;;10.18;7.93;;;;;;;;;;4996338;28;20026;-76
2023/08/15 01:08:09;;;;;;;7.43;5.57;;;;;;;;;;5013842;28;20030;-77
2023/08/15 01:10:34;;;;;;;11.05;5.32;;;;;;;;;;4996109;28;20032;-76
2023/08/15 01:13:07;;;;;;;12.20;7.25;;;;;;;;;;4996233;28;20400;-76
2023/08/15 01:15:34;;;;;;;9.38;5.63;;;;;;;;;;4979486;28;20022;-77
2023/08/15 01:18:07;;;;;;;8.20;6.10;;;;;;;;;;4991559;28;20030;-77
2023/08/15 01:20:34;;;;;;;7.63;4.88;;;;;;;;;;4982318;28;20392;-77
2023/08/15 01:23:01;;;;;;;9.77;7.07;;;;;;;;;;4996032;28;20033;-76
2023/08/15 01:25:27;;;;;;;13.00;8.30;;;;;;;;;;4995702;28;20046;-76
2023/08/15 01:27:52;;;;;;;12.43;8.90;;;;;;;;;;4995321;28;20054;-76
2023/08/15 01:30:21;;;;;;;16.67;9.48;;;;;;;;;;5013145;28;20026;-76
2023/08/15 01:33:01;;;;;;;9.98;7.65;;;;;;;;;;4990964;28;20034;-77
2023/08/15 01:35:47;;;;;;;14.50;9.00;;;;;;;;;;4983778;28;20032;-76
2023/08/15 01:38:15;;;;;;;11.45;8.00;;;;;;;;;;4994806;28;20034;-76
2023/08/15 01:40:41;;;;;;;10.35;7.20;;;;;;;;;;4995379;28;20029;-77
2023/08/15 01:43:09;;;;;;;10.77;7.28;;;;;;;;;;4979054;28;20036;-77
2023/08/15 01:45:34;;;;;;;8.77;6.63;;;;;;;;;;4995706;28;20053;-77
2023/08/15 01:48:00;;;;;;;10.57;6.72;;;;;;;;;;4995825;28;20116;-77
2023/08/15 01:50:25;;;;;;;14.27;10.23;;;;;;;;;;4995511;28;20480;-77
2023/08/15 01:52:50;;;;;;;17.05;11.48;;;;;;;;;;4995745;28;20045;-76
2023/08/15 01:55:16;;;;;;;25.10;13.60;;;;;;;;;;5012317;28;20033;-76
2023/08/15 01:57:41;;;;;;;16.20;11.18;;;;;;;;;;5013321;28;20026;-77
2023/08/15 02:00:07;;;;;;;14.23;9.70;;;;;;;;;;4995390;28;20024;-77
2023/08/15 02:02:32;;;;;;;12.02;7.20;;;;;;;;;;5012719;28;21053;-77
2023/08/15 02:05:01;;;;;;;11.40;7.53;;;;;;;;;;5013027;28;20030;-77
2023/08/15 02:07:27;;;;;;;11.10;7.38;;;;;;;;;;5013077;28;20417;-76
2023/08/15 02:09:52;;;;;;;15.45;9.80;;;;;;;;;;5012768;28;20104;-76
2023/08/15 02:12:17;;;;;;;14.15;8.32;;;;;;;;;;5012209;28;20029;-77
2023/08/15 02:14:42;;;;;;;21.00;13.10;;;;;;;;;;5013393;28;20495;-76
2023/08/15 02:17:08;;;;;;;21.35;12.73;;;;;;;;;;5012606;28;20101;-74
2023/08/15 02:19:33;;;;;;;21.75;14.25;;;;;;;;;;4995778;28;20029;-74
2023/08/15 02:21:58;;;;;;;15.38;10.15;;;;;;;;;;5012285;28;20026;-77
2023/08/15 02:24:24;;;;;;;18.92;12.40;;;;;;;;;;4995542;28;20037;-77
2023/08/15 02:26:49;;;;;;;28.75;18.17;;;;;;;;;;5012814;28;20025;-76
2023/08/15 02:29:15;;;;;;;24.63;14.32;;;;;;;;;;5012225;28;20022;-77
2023/08/15 02:31:46;;;;;;;26.60;16.20;;;;;;;;;;5012358;28;20498;-77
2023/08/15 02:34:11;;;;;;;22.63;13.20;;;;;;;;;;4998244;28;20026;-77
2023/08/15 02:36:36;;;;;;;28.35;17.02;;;;;;;;;;4996627;28;20114;-77
2023/08/15 02:39:02;;;;;;;25.33;15.57;;;;;;;;;;5014375;28;20468;-76
2023/08/15 02:41:27;;;;;;;18.52;12.13;;;;;;;;;;5015605;28;20029;-77
2023/08/15 02:43:52;;;;;;;30.25;17.25;;;;;;;;;;4996199;28;20477;-76
2023/08/15 02:46:18;;;;;;;30.17;15.75;;;;;;;;;;5017268;28;20037;-76
2023/08/15 02:48:44;;;;;;;32.55;17.65;;;;;;;;;;5015573;28;20442;-77
2023/08/15 02:51:09;;;;;;;31.17;16.85;;;;;;;;;;5001009;28;20033;-77
2023/08/15 02:53:36;;;;;;;29.20;18.30;;;;;;;;;;4998100;28;20038;-77
2023/08/15 02:56:01;;;;;;;25.08;15.90;;;;;;;;;;4995927;28;20022;-77
2023/08/15 02:58:26;;;;;;;28.13;16.02;;;;;;;;;;4998658;28;20036;-76
2023/08/15 03:00:51;;;;;;;24.98;14.82;;;;;;;;;;5015415;28;20018;-77
2023/08/15 03:03:17;;;;;;;26.90;14.80;;;;;;;;;;4998873;28;20030;-76
2023/08/15 03:05:42;;;;;;;24.45;14.43;;;;;;;;;;5013435;28;20092;-77
2023/08/15 03:08:07;;;;;;;25.73;15.50;;;;;;;;;;5007917;28;20036;-77
2023/08/15 03:10:35;;;;;;;22.55;13.68;;;;;;;;;;4991115;28;20036;-77
2023/08/15 03:13:00;;;;;;;28.35;16.05;;;;;;;;;;4998430;28;20033;-77
2023/08/15 03:15:25;;;;;;;20.05;13.35;;;;;;;;;;4998303;28;20076;-76
2023/08/15 03:17:51;;;;;;;23.10;15.48;;;;;;;;;;4998139;28;20038;-77
2023/08/15 03:20:16;;;;;;;21.02;12.35;;;;;;;;;;5014998;28;20479;-77
2023/08/15 03:22:43;;;;;;;17.50;11.07;;;;;;;;;;4998315;28;20021;-76
2023/08/15 03:25:08;;;;;;;13.18;8.50;;;;;;;;;;4981720;28;20041;-77
2023/08/15 03:27:33;;;;;;;24.83;14.98;;;;;;;;;;4995837;28;20041;-77
2023/08/15 03:29:59;;;;;;;23.77;13.85;;;;;;;;;;4997771;28;20029;-77
2023/08/15 03:32:24;;;;;;;22.45;13.30;;;;;;;;;;5005535;28;20109;-76
2023/08/15 03:34:49;;;;;;;26.20;15.80;;;;;;;;;;4995862;28;20083;-76
2023/08/15 03:37:15;;;;;;;24.02;14.75;;;;;;;;;;4995770;28;20030;-76
2023/08/15 03:39:40;;;;;;;23.00;12.73;;;;;;;;;;4995609;28;20018;-77
2023/08/15 03:42:05;;;;;;;23.02;13.18;;;;;;;;;;5006197;28;20400;-77
2023/08/15 03:44:30;;;;;;;22.08;13.65;;;;;;;;;;5011738;28;20028;-77
2023/08/15 03:46:56;;;;;;;24.67;15.00;;;;;;;;;;5015193;28;20053;-77
2023/08/15 03:49:21;;;;;;;17.42;11.50;;;;;;;;;;5014877;28;20052;-76
2023/08/15 03:51:46;;;;;;;32.95;17.83;;;;;;;;;;4980064;28;20050;-77
2023/08/15 03:54:11;;;;;;;28.17;13.68;;;;;;;;;;4977369;28;20484;-77
2023/08/15 03:56:37;;;;;;;24.88;13.38;;;;;;;;;;5004588;28;20098;-77
2023/08/15 03:59:02;;;;;;;27.60;12.93;;;;;;;;;;5014755;28;20404;-76
2023/08/15 04:01:28;;;;;;;29.17;15.10;;;;;;;;;;5014535;28;20021;-77
2023/08/15 04:03:54;;;;;;;29.10;16.35;;;;;;;;;;5014258;28;20476;-77
2023/08/15 04:06:20;;;;;;;31.30;16.27;;;;;;;;;;5014399;28;20025;-77
2023/08/15 04:08:45;;;;;;;21.55;13.35;;;;;;;;;;5014544;28;20022;-76
2023/08/15 04:11:10;;;;;;;25.45;14.98;;;;;;;;;;4996196;28;20026;-77
2023/08/15 04:13:36;;;;;;;23.55;13.52;;;;;;;;;;4997120;28;20029;-76
2023/08/15 04:16:01;;;;;;;23.17;12.80;;;;;;;;;;5014232;28;20022;-77
2023/08/15 04:18:26;;;;;;;28.10;14.32;;;;;;;;;;5014312;28;20483;-77
2023/08/15 04:20:52;;;;;;;28.88;14.95;;;;;;;;;;5011986;28;20018;-77
2023/08/15 04:23:17;;;;;;;22.10;13.40;;;;;;;;;;5014001;28;20104;-77
2023/08/15 04:25:44;;;;;;;22.63;12.35;;;;;;;;;;5014031;28;20033;-77
2023/08/15 04:28:09;;;;;;;27.27;14.38;;;;;;;;;;4994296;28;20165;-76
2023/08/15 04:30:34;;;;;;;21.77;12.98;;;;;;;;;;4976781;28;20161;-77
2023/08/15 04:33:00;;;;;;;18.13;11.55;;;;;;;;;;5007837;28;20030;-77
2023/08/15 04:35:26;;;;;;;18.80;10.32;;;;;;;;;;4996453;28;20044;-76
2023/08/15 04:37:51;;;;;;;22.40;11.88;;;;;;;;;;4993246;28;20023;-76
2023/08/15 04:40:28;;;;;;;16.60;9.48;;;;;;;;;;4976672;28;20029;-77
2023/08/15 04:42:53;;;;;;;;;;;;;;;;;;5009275;28;20033;-76
2023/08/15 04:45:19;;;;;;;19.57;12.03;;;;;;;;;;5013287;28;19909;-77
2023/08/15 04:47:44;;;;;;;19.83;11.48;;;;;;;;;;4996167;28;20072;-76
2023/08/15 04:50:09;;;;;;;18.35;10.45;;;;;;;;;;5044519;22;20053;-75
2023/08/15 04:52:35;;;;;;;15.82;8.13;;;;;;;;;;5013241;28;20439;-75
2023/08/15 04:55:00;;;;;;;15.60;9.48;;;;;;;;;;4996104;28;20026;-75
2023/08/15 04:57:25;;;;;;;17.65;9.80;;;;;;;;;;5013322;28;20072;-75
2023/08/15 04:59:50;;;;;;;19.00;11.02;;;;;;;;;;4995366;28;20109;-75
2023/08/15 05:02:16;;;;;;;19.40;11.88;;;;;;;;;;5013551;28;20503;-75
2023/08/15 05:04:41;;;;;;;16.55;10.15;;;;;;;;;;4995171;28;20026;-75
2023/08/15 05:07:06;;;;;;;13.93;10.02;;;;;;;;;;4996568;28;20017;-74
2023/08/15 05:09:31;;;;;;;19.50;10.95;;;;;;;;;;5013260;28;20028;-75
2023/08/15 05:11:57;;;;;;;16.27;10.27;;;;;;;;;;4976983;28;20027;-75
2023/08/15 05:14:22;;;;;;;23.58;12.35;;;;;;;;;;4957372;28;20397;-75
2023/08/15 05:16:48;;;;;;;25.60;12.93;;;;;;;;;;4965136;28;20025;-75
2023/08/15 05:19:13;;;;;;;25.52;13.13;;;;;;;;;;4993701;28;20026;-75
2023/08/15 05:21:39;;;;;;;28.70;13.90;;;;;;;;;;4966406;28;20037;-74
2023/08/15 05:24:05;;;;;;;14.88;9.90;;;;;;;;;;4957158;28;20477;-75
2023/08/15 05:26:30;;;;;;;15.70;10.32;;;;;;;;;;4979300;28;20022;-74
2023/08/15 05:28:56;;;;;;;24.00;12.52;;;;;;;;;;4979479;28;20025;-75
2023/08/15 05:31:21;;;;;;;15.70;11.07;;;;;;;;;;5012903;28;20026;-75
2023/08/15 05:33:46;;;;;;;28.40;14.52;;;;;;;;;;4995613;28;20036;-75
2023/08/15 05:36:11;;;;;;;25.08;15.35;;;;;;;;;;5012750;28;20028;-74
2023/08/15 05:38:37;;;;;;;30.58;17.40;;;;;;;;;;4995528;28;20030;-75
2023/08/15 05:41:02;;;;;;;20.05;11.23;;;;;;;;;;5012686;28;20018;-74
2023/08/15 05:43:27;;;;;;;20.48;12.98;;;;;;;;;;5013102;28;20026;-73
2023/08/15 05:45:53;;;;;;;20.75;12.23;;;;;;;;;;5012215;28;20022;-74
2023/08/15 05:48:18;;;;;;;16.90;11.07;;;;;;;;;;5013249;28;20030;-73
2023/08/15 05:50:43;;;;;;;20.65;12.82;;;;;;;;;;5012665;28;20476;-73
2023/08/15 05:53:09;;;;;;;19.80;13.25;;;;;;;;;;4995561;28;20214;-73
2023/08/15 05:55:34;;;;;;;20.55;12.40;;;;;;;;;;4996095;28;20022;-73
2023/08/15 05:57:59;;;;;;;22.17;11.90;;;;;;;;;;5012941;28;20026;-73
2023/08/15 06:00:24;;;;;;;18.98;11.05;;;;;;;;;;5012430;28;20042;-74
2023/08/15 06:02:50;;;;;;;20.20;12.77;;;;;;;;;;4995222;28;20037;-72
2023/08/15 06:05:15;;;;;;;24.40;12.13;;;;;;;;;;5013132;28;20080;-74
2023/08/15 06:07:43;;;;;;;18.88;12.13;;;;;;;;;;4993432;28;20022;-73
2023/08/15 06:10:08;;;;;;;20.42;12.27;;;;;;;;;;4997538;28;20025;-74
2023/08/15 06:12:34;;;;;;;15.63;9.65;;;;;;;;;;5011234;28;20034;-73
2023/08/15 06:14:59;;;;;;;17.58;11.05;;;;;;;;;;4998965;28;20026;-75
2023/08/15 06:17:24;;;;;;;25.75;12.80;;;;;;;;;;5004751;28;20018;-73
2023/08/15 06:19:50;;;;;;;17.90;11.07;;;;;;;;;;4997070;28;20416;-73
2023/08/15 06:22:15;;;;;;;17.90;11.13;;;;;;;;;;4990011;28;20121;-73
2023/08/15 06:24:41;;;;;;;18.92;10.77;;;;;;;;;;5015843;28;20025;-74
2023/08/15 06:27:06;;;;;;;15.10;10.95;;;;;;;;;;4999489;28;20032;-73
2023/08/15 06:29:31;;;;;;;15.10;10.18;;;;;;;;;;5016491;28;20029;-72
2023/08/15 06:31:58;;;;;;;17.27;10.82;;;;;;;;;;4998576;28;20080;-74
2023/08/15 06:34:23;;;;;;;18.05;10.55;;;;;;;;;;5016496;28;20026;-74
2023/08/15 06:36:48;;;;;;;18.75;10.43;;;;;;;;;;5015599;28;20030;-74
2023/08/15 06:39:14;;;;;;;16.30;9.60;;;;;;;;;;4998793;28;20021;-74
2023/08/15 06:41:39;;;;;;;16.38;10.77;;;;;;;;;;4998722;28;20026;-74
2023/08/15 06:44:04;;;;;;;17.17;11.07;;;;;;;;;;5016173;28;20026;-73
2023/08/15 06:46:30;;;;;;;13.93;9.13;;;;;;;;;;5015378;28;20032;-74
2023/08/15 06:48:55;;;;;;;20.63;10.88;;;;;;;;;;5016273;28;20041;-73
2023/08/15 06:51:20;;;;;;;17.63;10.10;;;;;;;;;;4998767;28;20014;-73
2023/08/15 06:53:49;;;;;;;15.38;9.32;;;;;;;;;;4982322;28;20460;-74
2023/08/15 06:56:14;;;;;;;17.80;10.82;;;;;;;;;;5015540;28;20060;-74
2023/08/15 06:58:39;;;;;;;18.35;10.32;;;;;;;;;;5015911;28;20061;-74
2023/08/15 07:01:06;;;;;;;15.35;9.65;;;;;;;;;;5015974;28;20025;-73
2023/08/15 07:03:33;;;;;;;18.92;10.70;;;;;;;;;;5016102;28;20079;-73
2023/08/15 07:05:58;;;;;;;15.45;9.98;;;;;;;;;;4997628;28;20024;-74
2023/08/15 07:08:23;;;;;;;17.90;8.55;;;;;;;;;;5015998;28;20399;-73
2023/08/15 07:10:54;;;;;;;17.08;9.90;;;;;;;;;;5015749;28;20022;-73
2023/08/15 07:13:19;;;;;;;15.05;8.45;;;;;;;;;;4998536;28;20399;-73
2023/08/15 07:15:44;;;;;;;14.60;7.82;;;;;;;;;;5015122;28;20117;-73
2023/08/15 07:18:10;;;;;;;17.58;9.93;;;;;;;;;;4998344;28;20021;-74
2023/08/15 07:20:35;;;;;;;17.20;7.95;;;;;;;;;;4997454;28;20392;-74
2023/08/15 07:23:00;;;;;;;13.30;8.73;;;;;;;;;;4992235;28;20033;-74
2023/08/15 07:25:25;;;;;;;16.08;9.02;;;;;;;;;;5012019;28;20020;-76
2023/08/15 07:27:51;;;;;;;13.70;9.35;;;;;;;;;;4996662;28;20555;-75
2023/08/15 07:30:16;;;;;;;18.35;9.90;;;;;;;;;;4994318;28;20022;-76
2023/08/15 07:32:42;;;;;;;18.30;8.82;;;;;;;;;;5015292;28;20117;-73
2023/08/15 07:35:07;;;;;;;15.00;9.35;;;;;;;;;;5015358;28;20033;-73
2023/08/15 07:37:33;;;;;;;17.05;9.07;;;;;;;;;;4982572;28;20097;-73
2023/08/15 07:40:07;;;;;;;14.50;9.23;;;;;;;;;;4978078;28;20049;-74
2023/08/15 07:42:33;;;;;;;15.25;9.18;;;;;;;;;;4950389;28;20031;-73
2023/08/15 07:44:58;;;;;;;12.65;8.38;;;;;;;;;;4990351;28;20109;-74
2023/08/15 07:47:24;;;;;;;17.67;9.63;;;;;;;;;;4995394;28;20026;-74
2023/08/15 07:50:22;;;;;;;13.63;8.57;;;;;;;;;;5000122;28;20060;-72
2023/08/15 07:52:47;;;;;;;12.38;8.75;;;;;;;;;;4997716;28;20084;-72
2023/08/15 07:55:13;;;;;;;13.68;8.05;;;;;;;;;;4981077;28;20061;-73
2023/08/15 07:57:38;;;;;;;14.05;9.60;;;;;;;;;;5015094;28;20017;-73
2023/08/15 08:00:04;;;;;;;13.70;8.30;;;;;;;;;;5014811;28;20080;-73
2023/08/15 08:02:30;;;;;;;17.23;11.00;;;;;;;;;;5014825;28;20105;-75
2023/08/15 08:04:55;;;;;;;15.00;8.18;;;;;;;;;;4997461;28;20060;-75
2023/08/15 08:07:20;;;;;;;12.65;8.77;;;;;;;;;;4997334;28;20080;-73
2023/08/15 08:09:46;;;;;;;11.95;8.05;;;;;;;;;;4997003;28;20018;-75
2023/08/15 08:12:11;;;;;;;13.98;8.98;;;;;;;;;;5014782;28;20503;-75
2023/08/15 08:14:36;;;;;;;14.48;9.35;;;;;;;;;;4997770;28;20026;-77
2023/08/15 08:17:02;;;;;;;17.60;9.90;;;;;;;;;;4996571;28;20044;-73
2023/08/15 08:19:27;;;;;;;14.05;8.55;;;;;;;;;;5014625;28;20125;-76
2023/08/15 08:21:53;;;;;;;15.38;7.65;;;;;;;;;;4996878;28;20021;-76
2023/08/15 08:24:18;;;;;;;14.23;8.27;;;;;;;;;;5014537;28;20022;-74
2023/08/15 08:26:44;;;;;;;17.13;8.77;;;;;;;;;;4996810;28;20029;-74
2023/08/15 08:29:10;;;;;;;14.73;10.27;;;;;;;;;;5014245;28;20034;-73
2023/08/15 08:31:37;;;;;;;11.98;7.50;;;;;;;;;;5013404;28;20025;-73
2023/08/15 08:34:03;;;;;;;10.20;7.43;;;;;;;;;;5014324;28;20493;-73
2023/08/15 08:36:28;;;;;;;18.33;8.85;;;;;;;;;;4996880;28;20053;-74
2023/08/15 08:38:54;;;;;;;19.55;9.50;;;;;;;;;;4996726;28;20033;-74
2023/08/15 08:41:19;;;;;;;16.63;9.75;;;;;;;;;;5013968;28;20014;-74
2023/08/15 08:43:44;;;;;;;15.40;9.65;;;;;;;;;;4996122;28;20030;-73
2023/08/15 08:46:10;;;;;;;16.25;8.30;;;;;;;;;;4996334;28;20026;-73
2023/08/15 08:48:36;;;;;;;13.60;7.70;;;;;;;;;;4996025;28;20036;-74
2023/08/15 08:51:01;;;;;;;15.00;8.75;;;;;;;;;;4996020;28;20022;-73
2023/08/15 08:53:27;;;;;;;15.98;8.20;;;;;;;;;;4996348;28;20030;-73
2023/08/15 08:55:52;;;;;;;13.68;9.18;;;;;;;;;;4990992;28;20081;-74
2023/08/15 08:58:18;;;;;;;13.65;8.50;;;;;;;;;;4976168;28;20046;-73
2023/08/15 09:00:44;;;;;;;17.45;8.35;;;;;;;;;;4976747;28;20018;-73
2023/08/15 09:03:09;;;;;;;15.27;8.43;;;;;;;;;;4980544;28;20552;-73
2023/08/15 09:05:35;;;;;;;14.90;9.85;;;;;;;;;;4974163;28;20106;-74
2023/08/15 09:08:00;;;;;;;13.10;9.25;;;;;;;;;;4957177;28;20034;-73
2023/08/15 09:10:25;;;;;;;15.93;10.50;;;;;;;;;;4956976;28;20485;-74
2023/08/15 09:12:57;;;;;;;13.75;9.98;;;;;;;;;;5000735;28;20042;-73
2023/08/15 09:15:23;;;;;;;17.15;10.00;;;;;;;;;;4995785;28;20025;-73
2023/08/15 09:17:49;;;;;;;17.35;9.32;;;;;;;;;;4996408;28;20079;-74
2023/08/15 09:20:16;;;;;;;13.40;8.38;;;;;;;;;;4995178;28;20420;-76
2023/08/15 09:22:45;;;;;;;17.88;9.90;;;;;;;;;;4995932;28;20109;-76
2023/08/15 09:25:11;;;;;;;15.43;9.73;;;;;;;;;;4979858;28;20052;-75
2023/08/15 09:27:38;;;;;;;20.40;11.32;;;;;;;;;;4995536;28;20067;-76
2023/08/15 09:30:11;;;;;;;14.93;10.52;;;;;;;;;;4995060;28;20022;-75
2023/08/15 09:32:41;;;;;;;21.92;13.50;;;;;;;;;;5013998;28;20042;-74
2023/08/15 09:35:12;;;;;;;24.17;12.95;;;;;;;;;;5012863;28;20393;-74
2023/08/15 09:37:44;;;;;;;27.92;15.23;;;;;;;;;;4980799;28;20030;-74
2023/08/15 09:40:12;;;;;;;29.35;16.73;;;;;;;;;;4956461;28;20628;-74
2023/08/15 09:42:37;;;;;;;28.25;15.30;;;;;;;;;;4968901;28;20457;-74
2023/08/15 09:45:03;;;;;;;33.85;19.00;;;;;;;;;;4993527;28;20054;-76
2023/08/15 09:47:29;;;;;;;34.78;19.77;;;;;;;;;;4979457;28;20487;-73
2023/08/15 09:49:54;;;;;;;33.30;20.95;;;;;;;;;;5012984;28;20030;-73
2023/08/15 09:52:20;;;;;;;38.97;21.90;;;;;;;;;;4996682;28;20084;-74
2023/08/15 09:54:45;;;;;;;35.70;21.88;;;;;;;;;;4995718;28;20018;-74
2023/08/15 09:57:10;;;;;;;36.92;22.23;;;;;;;;;;4996129;28;20029;-74
2023/08/15 09:59:36;;;;;;;38.30;21.52;;;;;;;;;;5012883;28;20395;-74
2023/08/15 10:02:03;;;;;;;36.03;23.10;;;;;;;;;;4995997;28;20029;-74
2023/08/15 10:04:31;;;;;;;40.65;23.67;;;;;;;;;;4995391;28;20022;-73
2023/08/15 10:06:58;;;;;;;40.65;24.92;;;;;;;;;;4995315;28;20026;-73
2023/08/15 10:09:24;;;;;;;38.20;21.50;;;;;;;;;;4995306;28;20037;-73
2023/08/15 10:11:50;;;;;;;35.40;20.85;;;;;;;;;;4979062;28;20161;-73
2023/08/15 10:14:17;;;;;;;32.95;20.65;;;;;;;;;;4978933;28;20025;-73
2023/08/15 10:16:43;;;;;;;30.15;16.77;;;;;;;;;;4978631;28;20092;-73
2023/08/15 10:19:09;;;;;;;27.67;16.17;;;;;;;;;;4978713;28;20049;-73
2023/08/15 10:21:51;;;;;;;22.27;14.27;;;;;;;;;;4967426;28;20031;-73
2023/08/15 10:24:16;;;;;;;25.83;14.32;;;;;;;;;;5007595;28;20113;-74
2023/08/15 10:26:43;;;;;;;23.90;11.68;;;;;;;;;;4994882;28;20496;-73
2023/08/15 10:29:08;;;;;;;21.38;12.80;;;;;;;;;;4959788;28;20027;-73
2023/08/15 10:31:38;;;;;;;24.60;12.05;;;;;;;;;;4956323;28;20429;-74
2023/08/15 10:34:04;;;;;;;24.17;11.20;;;;;;;;;;4972287;28;20452;-73
2023/08/15 10:36:30;;;;;;;18.15;10.65;;;;;;;;;;4964890;28;20026;-75
2023/08/15 10:38:55;;;;;;;18.15;9.77;;;;;;;;;;4972017;28;20041;-74
2023/08/15 10:41:21;;;;;;;16.02;10.25;;;;;;;;;;4967579;28;20097;-74
2023/08/15 10:43:54;;;;;;;15.15;9.10;;;;;;;;;;4962420;28;20030;-73
2023/08/15 10:46:27;;;;;;;15.68;8.50;;;;;;;;;;4986189;28;20030;-74
2023/08/15 10:48:54;;;;;;;14.38;8.45;;;;;;;;;;4967896;28;20034;-74
2023/08/15 10:51:28;;;;;;;15.43;7.60;;;;;;;;;;4965045;28;20058;-72
2023/08/15 10:54:13;;;;;;;11.25;6.85;;;;;;;;;;4991575;28;20547;-73
2023/08/15 10:56:40;;;;;;;8.15;6.47;;;;;;;;;;4971406;28;20069;-74
2023/08/15 10:59:11;;;;;;;10.80;6.55;;;;;;;;;;4988623;28;20093;-75
2023/08/15 11:01:37;;;;;;;8.88;5.75;;;;;;;;;;4995434;28;20021;-74
2023/08/15 11:04:03;;;;;;;7.95;6.40;;;;;;;;;;4992896;28;20036;-73
2023/08/15 11:06:29;;;;;;;10.07;5.55;;;;;;;;;;4998085;28;20543;-73
2023/08/15 11:08:58;;;;;;;8.25;4.85;;;;;;;;;;4997858;28;20022;-73
2023/08/15 11:11:24;;;;;;;7.25;4.70;;;;;;;;;;4997902;28;20472;-74
2023/08/15 11:13:51;;;;;;;8.93;4.50;;;;;;;;;;4997108;28;20045;-74
2023/08/15 11:16:19;;;;;;;11.90;5.65;;;;;;;;;;5015615;28;20033;-73
2023/08/15 11:18:45;;;;;;;10.68;5.15;;;;;;;;;;5015551;28;20053;-74
2023/08/15 11:21:12;;;;;;;9.30;4.88;;;;;;;;;;4998246;28;20033;-73
2023/08/15 11:23:38;;;;;;;11.25;5.05;;;;;;;;;;4997927;28;20022;-73
2023/08/15 11:26:09;;;;;;;11.52;5.38;;;;;;;;;;4998253;28;20072;-73
2023/08/15 11:28:35;;;;;;;;;;;;;;;;;;4997663;28;20021;-73
2023/08/15 11:31:28;;;;;;;14.95;5.07;;;;;;;;;;4998138;28;20011;-74
2023/08/15 11:33:53;;;;;;;14.70;5.47;;;;;;;;;;5011436;28;20415;-75
2023/08/15 11:36:20;;;;;;;15.32;4.78;;;;;;;;;;5011251;28;20021;-74
2023/08/15 11:38:45;;;;;;;10.77;4.85;;;;;;;;;;4996341;28;20021;-73
2023/08/15 11:41:11;;;;;;;20.63;4.82;;;;;;;;;;4997762;28;20391;-74
2023/08/15 11:43:36;;;;;;;15.70;5.35;;;;;;;;;;4997923;28;20025;-73
2023/08/15 11:46:02;;;;;;;14.57;4.72;;;;;;;;;;4981215;28;20088;-73
2023/08/15 11:48:29;;;;;;;9.55;3.47;;;;;;;;;;4997560;28;20444;-74
2023/08/15 11:50:54;;;;;;;12.23;4.70;;;;;;;;;;4997323;28;20022;-74
2023/08/15 11:53:19;;;;;;;12.98;4.38;;;;;;;;;;4997618;28;20034;-74
2023/08/15 11:55:46;;;;;;;8.27;4.13;;;;;;;;;;4997971;28;20029;-73
2023/08/15 11:58:30;;;;;;;11.63;4.03;;;;;;;;;;4997076;28;20104;-74
2023/08/15 12:01:05;;;;;;;15.27;4.13;;;;;;;;;;4990102;28;20485;-74
2023/08/15 12:03:30;;;;;;;9.32;3.22;;;;;;;;;;4978379;28;20413;-73
2023/08/15 12:05:57;;;;;;;11.52;3.50;;;;;;;;;;4974470;28;20026;-73
2023/08/15 12:08:26;;;;;;;11.98;3.45;;;;;;;;;;4989620;28;20038;-74
2023/08/15 12:10:59;;;;;;;6.20;2.95;;;;;;;;;;4977433;28;20018;-74
2023/08/15 12:13:31;;;;;;;8.18;3.40;;;;;;;;;;4990034;28;20026;-73
2023/08/15 12:15:57;;;;;;;11.35;3.10;;;;;;;;;;4997184;28;20080;-74
2023/08/15 12:18:22;;;;;;;7.80;3.10;;;;;;;;;;5014514;28;20038;-74
2023/08/15 12:20:47;;;;;;;11.95;3.42;;;;;;;;;;4997353;28;20020;-74
2023/08/15 12:23:13;;;;;;;7.32;2.72;;;;;;;;;;4995957;28;20033;-74
2023/08/15 12:25:38;;;;;;;8.18;2.70;;;;;;;;;;4978810;28;20034;-74
2023/08/15 12:28:04;;;;;;;8.52;3.17;;;;;;;;;;4977254;28;20089;-74
2023/08/15 12:30:30;;;;;;;8.40;2.75;;;;;;;;;;4978659;28;20064;-73
2023/08/15 12:32:55;;;;;;;6.97;2.90;;;;;;;;;;4980595;28;20030;-74
2023/08/15 12:35:20;;;;;;;12.10;3.63;;;;;;;;;;4979961;28;20025;-74
2023/08/15 12:37:45;;;;;;;6.15;2.22;;;;;;;;;;4994839;28;20030;-74
2023/08/15 12:40:11;;;;;;;5.68;2.00;;;;;;;;;;4994382;28;20381;-74
2023/08/15 12:42:36;;;;;;;5.63;2.00;;;;;;;;;;5009903;28;20029;-74
2023/08/15 12:45:02;;;;;;;4.85;2.17;;;;;;;;;;5014138;28;20026;-74
2023/08/15 12:47:29;;;;;;;3.25;1.90;;;;;;;;;;4996217;28;20037;-76
2023/08/15 12:49:54;;;;;;;4.63;2.10;;;;;;;;;;4996214;28;20022;-75
2023/08/15 12:52:19;;;;;;;5.97;2.03;;;;;;;;;;4996557;28;20026;-75
2023/08/15 12:54:45;;;;;;;4.82;2.00;;;;;;;;;;5013804;28;20034;-75
2023/08/15 12:57:10;;;;;;;3.65;1.85;;;;;;;;;;5014031;28;20021;-75
2023/08/15 12:59:35;;;;;;;3.42;2.22;;;;;;;;;;4996739;28;20101;-76
2023/08/15 13:02:01;;;;;;;3.72;1.40;;;;;;;;;;5013986;28;20420;-75
2023/08/15 13:04:26;;;;;;;5.03;2.10;;;;;;;;;;4978613;28;20030;-75
2023/08/15 13:06:51;;;;;;;3.78;1.80;;;;;;;;;;4957151;28;20022;-75
2023/08/15 13:09:17;;;;;;;9.48;2.40;;;;;;;;;;4959586;28;20041;-75
2023/08/15 13:11:43;;;;;;;6.20;2.47;;;;;;;;;;4953965;28;20034;-76
2023/08/15 13:14:08;;;;;;;7.40;2.47;;;;;;;;;;4974344;28;20034;-76
2023/08/15 13:16:34;;;;;;;4.82;1.90;;;;;;;;;;4968134;28;20030;-75
2023/08/15 13:19:00;;;;;;;4.32;2.20;;;;;;;;;;4994141;28;20256;-75
2023/08/15 13:21:29;;;;;;;8.13;2.50;;;;;;;;;;4997168;28;20026;-75
2023/08/15 13:23:55;;;;;;;5.40;2.15;;;;;;;;;;4996470;28;20021;-76
2023/08/15 13:26:20;;;;;;;7.72;2.33;;;;;;;;;;4977656;28;20053;-75
2023/08/15 13:28:46;;;;;;;4.82;2.30;;;;;;;;;;4976503;28;20507;-76
2023/08/15 13:31:12;;;;;;;6.90;2.20;;;;;;;;;;4976308;28;20030;-74
2023/08/15 13:33:38;;;;;;;3.90;2.20;;;;;;;;;;4976645;28;20038;-74
2023/08/15 13:36:03;;;;;;;3.40;1.95;;;;;;;;;;4993092;28;20030;-74
2023/08/15 13:38:28;;;;;;;5.53;2.30;;;;;;;;;;4995505;28;20021;-74
2023/08/15 13:40:53;;;;;;;4.70;2.17;;;;;;;;;;5013367;28;20018;-74
2023/08/15 13:43:19;;;;;;;7.20;1.92;;;;;;;;;;4995826;28;20033;-74
2023/08/15 13:45:44;;;;;;;5.72;2.40;;;;;;;;;;4995483;28;20026;-73
2023/08/15 13:48:09;;;;;;;5.53;2.35;;;;;;;;;;4995422;28;20084;-73
2023/08/15 13:50:35;;;;;;;5.82;2.00;;;;;;;;;;5013304;28;20498;-74
2023/08/15 13:53:01;;;;;;;3.00;1.77;;;;;;;;;;5013463;28;20037;-74
2023/08/15 13:55:26;;;;;;;4.82;2.20;;;;;;;;;;4996106;28;20030;-74
2023/08/15 13:57:52;;;;;;;4.55;1.60;;;;;;;;;;4995582;28;20026;-74
2023/08/15 14:00:17;;;;;;;3.83;1.77;;;;;;;;;;4996649;28;20048;-74
2023/08/15 14:02:43;;;;;;;3.20;1.90;;;;;;;;;;5014267;28;20025;-74
2023/08/15 14:05:08;;;;;;;4.57;1.90;;;;;;;;;;5013369;28;20026;-74
2023/08/15 14:07:34;;;;;;;4.10;2.13;;;;;;;;;;4995603;28;20107;-74
2023/08/15 14:09:59;;;;;;;3.53;1.60;;;;;;;;;;4995503;28;20049;-74
2023/08/15 14:12:26;;;;;;;4.95;2.15;;;;;;;;;;4995668;28;20080;-74
2023/08/15 14:14:52;;;;;;;6.15;2.33;;;;;;;;;;4995384;28;20117;-75
2023/08/15 14:17:17;;;;;;;3.75;1.98;;;;;;;;;;4995602;28;20058;-73
2023/08/15 14:19:42;;;;;;;5.47;2.13;;;;;;;;;;5013065;28;20022;-74
2023/08/15 14:22:08;;;;;;;3.70;1.83;;;;;;;;;;4995653;28;20482;-74